Time,TemperatureF,DewpointF,PressureIn,WindDirection,WindDirectionDegrees,WindSpeedMPH,WindSpeedGustMPH,Humidity,HourlyPrecipIn,Conditions,Clouds,dailyrainin,SoftwareType,DateUTC
2013-02-25 00:32:00,19.0,18.0,-100.00,East,80,2.0,2.0,97,-99.99,,,-99.99,,2013-02-25 06:32:00,
2013-02-25 00:42:00,19.0,18.0,-100.00,East,80,2.0,2.0,97,-99.99,,,-99.99,,2013-02-25 06:42:00,
2013-02-25 00:52:00,19.0,18.0,-100.00,East,80,2.0,2.0,97,-99.99,,,-99.99,,2013-02-25 06:52:00,
2013-02-25 01:01:00,19.0,18.0,-100.00,East,80,2.0,2.0,97,-99.99,,,-99.99,,2013-02-25 07:01:00,
2013-02-25 01:32:00,19.0,19.0,-100.00,North,350,1.0,2.0,99,-99.99,,,-99.99,,2013-02-25 07:32:00,
2013-02-25 01:42:00,19.0,19.0,-100.00,North,350,1.0,2.0,99,-99.99,,,-99.99,,2013-02-25 07:42:00,
2013-02-25 01:52:00,19.0,19.0,-100.00,North,350,1.0,2.0,99,-99.99,,,-99.99,,2013-02-25 07:52:00,
2013-02-25 02:01:00,19.0,19.0,-100.00,North,350,1.0,2.0,99,-99.99,,,-99.99,,2013-02-25 08:01:00,
2013-02-25 02:32:00,18.0,18.0,-100.00,East,80,1.0,1.0,99,-99.99,,,-99.99,,2013-02-25 08:32:00,
2013-02-25 02:42:00,18.0,18.0,-100.00,East,80,1.0,1.0,99,-99.99,,,-99.99,,2013-02-25 08:42:00,
2013-02-25 02:52:00,18.0,18.0,-100.00,East,80,1.0,1.0,99,-99.99,,,-99.99,,2013-02-25 08:52:00,
2013-02-25 03:01:00,18.0,18.0,-100.00,East,80,1.0,1.0,99,-99.99,,,-99.99,,2013-02-25 09:01:00,
2013-02-25 03:32:00,16.0,16.0,-100.00,ENE,70,1.0,2.0,99,-99.99,,,-99.99,,2013-02-25 09:32:00,
2013-02-25 03:42:00,16.0,16.0,-100.00,ENE,70,1.0,2.0,99,-99.99,,,-99.99,,2013-02-25 09:42:00,
2013-02-25 03:52:00,16.0,16.0,-100.00,ENE,70,1.0,2.0,99,-99.99,,,-99.99,,2013-02-25 09:52:00,
2013-02-25 04:01:00,16.0,16.0,-100.00,ENE,70,1.0,2.0,99,-99.99,,,-99.99,,2013-02-25 10:01:00,
2013-02-25 04:32:00,16.0,16.0,-100.00,SE,140,0.0,1.0,99,-99.99,,,-99.99,,2013-02-25 10:32:00,
2013-02-25 04:42:00,16.0,16.0,-100.00,SE,140,0.0,1.0,99,-99.99,,,-99.99,,2013-02-25 10:42:00,
2013-02-25 04:52:00,16.0,16.0,-100.00,SE,140,0.0,1.0,99,-99.99,,,-99.99,,2013-02-25 10:52:00,
2013-02-25 05:01:00,16.0,16.0,-100.00,SE,140,0.0,1.0,99,-99.99,,,-99.99,,2013-02-25 11:01:00,
2013-02-25 05:02:00,16.0,16.0,-100.00,SSE,155,0.0,1.0,99,-99.99,,,-99.99,,2013-02-25 11:02:00,
2013-02-25 05:32:00,16.0,16.0,-100.00,SSE,155,0.0,1.0,99,-99.99,,,-99.99,,2013-02-25 11:32:00,
2013-02-25 05:42:00,16.0,16.0,-100.00,SSE,155,0.0,1.0,99,-99.99,,,-99.99,,2013-02-25 11:42:00,
2013-02-25 05:52:00,16.0,16.0,-100.00,SSE,155,0.0,1.0,99,-99.99,,,-99.99,,2013-02-25 11:52:00,
2013-02-25 06:02:00,16.0,16.0,-100.00,ESE,110,2.0,3.0,99,-99.99,,,-99.99,,2013-02-25 12:02:00,
2013-02-25 06:32:00,16.0,16.0,-100.00,ESE,110,2.0,3.0,99,-99.99,,,-99.99,,2013-02-25 12:32:00,
2013-02-25 06:42:00,16.0,16.0,-100.00,ESE,110,2.0,3.0,99,-99.99,,,-99.99,,2013-02-25 12:42:00,
2013-02-25 06:55:00,16.0,16.0,-100.00,ESE,110,2.0,3.0,99,-99.99,,,-99.99,,2013-02-25 12:55:00,
2013-02-25 07:02:00,17.0,17.0,-100.00,ESE,105,2.0,4.0,99,-99.99,,,-99.99,,2013-02-25 13:02:00,
2013-02-25 07:32:00,17.0,17.0,-100.00,ESE,105,2.0,4.0,99,-99.99,,,-99.99,,2013-02-25 13:32:00,
2013-02-25 07:42:00,17.0,17.0,-100.00,ESE,105,2.0,4.0,99,-99.99,,,-99.99,,2013-02-25 13:42:00,
2013-02-25 07:52:00,17.0,17.0,-100.00,ESE,105,2.0,4.0,99,-99.99,,,-99.99,,2013-02-25 13:52:00,
2013-02-25 08:02:00,18.0,18.0,-100.00,ESE,110,2.0,4.0,99,-99.99,,,-99.99,,2013-02-25 14:02:00,
2013-02-25 08:32:00,18.0,18.0,-100.00,ESE,110,2.0,4.0,99,-99.99,,,-99.99,,2013-02-25 14:32:00,
2013-02-25 08:42:00,18.0,18.0,-100.00,ESE,110,2.0,4.0,99,-99.99,,,-99.99,,2013-02-25 14:42:00,
2013-02-25 08:52:00,18.0,18.0,-100.00,ESE,110,2.0,4.0,99,-99.99,,,-99.99,,2013-02-25 14:52:00,
2013-02-25 09:02:00,22.0,21.0,-100.00,South,175,1.0,3.0,95,-99.99,,,-99.99,,2013-02-25 15:02:00,
2013-02-25 09:32:00,22.0,21.0,-100.00,South,175,1.0,3.0,95,-99.99,,,-99.99,,2013-02-25 15:32:00,
2013-02-25 09:42:00,22.0,21.0,-100.00,South,175,1.0,3.0,95,-99.99,,,-99.99,,2013-02-25 15:42:00,
2013-02-25 09:52:00,22.0,21.0,-100.00,South,175,1.0,3.0,95,-99.99,,,-99.99,,2013-02-25 15:52:00,
2013-02-25 10:32:00,29.0,23.0,-100.00,South,170,2.0,4.0,78,-99.99,,,-99.99,,2013-02-25 16:32:00,
2013-02-25 10:42:00,29.0,23.0,-100.00,South,170,2.0,4.0,78,-99.99,,,-99.99,,2013-02-25 16:42:00,
2013-02-25 10:52:00,29.0,23.0,-100.00,South,170,2.0,4.0,78,-99.99,,,-99.99,,2013-02-25 16:52:00,
2013-02-25 11:01:00,29.0,23.0,-100.00,South,170,2.0,4.0,78,-99.99,,,-99.99,,2013-02-25 17:01:00,
2013-02-25 11:32:00,35.0,24.0,-100.00,SSW,195,4.0,6.0,65,-99.99,,,-99.99,,2013-02-25 17:32:00,
2013-02-25 11:42:00,35.0,24.0,-100.00,SSW,195,4.0,6.0,65,-99.99,,,-99.99,,2013-02-25 17:42:00,
2013-02-25 11:52:00,35.0,24.0,-100.00,SSW,195,4.0,6.0,65,-99.99,,,-99.99,,2013-02-25 17:52:00,
2013-02-25 12:01:00,35.0,24.0,-100.00,SSW,195,4.0,6.0,65,-99.99,,,-99.99,,2013-02-25 18:01:00,
2013-02-25 12:33:00,40.0,25.0,-100.00,SSE,165,5.0,8.0,54,-99.99,,,-99.99,,2013-02-25 18:33:00,
2013-02-25 12:42:00,40.0,25.0,-100.00,SSE,165,5.0,8.0,54,-99.99,,,-99.99,,2013-02-25 18:42:00,
2013-02-25 12:52:00,40.0,25.0,-100.00,SSE,165,5.0,8.0,54,-99.99,,,-99.99,,2013-02-25 18:52:00,
2013-02-25 13:01:00,40.0,25.0,-100.00,SSE,165,5.0,8.0,54,-99.99,,,-99.99,,2013-02-25 19:01:00,
2013-02-25 13:32:00,44.0,28.0,-100.00,SW,225,9.0,11.0,54,-99.99,,,-99.99,,2013-02-25 19:32:00,
2013-02-25 13:42:00,44.0,28.0,-100.00,SW,225,9.0,11.0,54,-99.99,,,-99.99,,2013-02-25 19:42:00,
2013-02-25 13:52:00,44.0,28.0,-100.00,SW,225,9.0,11.0,54,-99.99,,,-99.99,,2013-02-25 19:52:00,
2013-02-25 14:01:00,44.0,28.0,-100.00,SW,225,9.0,11.0,54,-99.99,,,-99.99,,2013-02-25 20:01:00,
2013-02-25 14:32:00,46.0,25.0,-100.00,SW,235,11.0,15.0,44,-99.99,,,-99.99,,2013-02-25 20:32:00,
2013-02-25 14:42:00,46.0,25.0,-100.00,SW,235,11.0,15.0,44,-99.99,,,-99.99,,2013-02-25 20:42:00,
2013-02-25 14:52:00,46.0,25.0,-100.00,SW,235,11.0,15.0,44,-99.99,,,-99.99,,2013-02-25 20:52:00,
2013-02-25 15:01:00,46.0,25.0,-100.00,SW,235,11.0,15.0,44,-99.99,,,-99.99,,2013-02-25 21:01:00,
2013-02-25 15:32:00,46.0,25.0,-100.00,SW,215,6.0,11.0,44,-99.99,,,-99.99,,2013-02-25 21:32:00,
2013-02-25 15:42:00,46.0,25.0,-100.00,SW,215,6.0,11.0,44,-99.99,,,-99.99,,2013-02-25 21:42:00,
2013-02-25 15:52:00,46.0,25.0,-100.00,SW,215,6.0,11.0,44,-99.99,,,-99.99,,2013-02-25 21:52:00,
2013-02-25 16:01:00,46.0,25.0,-100.00,SW,215,6.0,11.0,44,-99.99,,,-99.99,,2013-02-25 22:01:00,
2013-02-25 16:32:00,47.0,24.0,-100.00,WSW,240,6.0,10.0,41,-99.99,,,-99.99,,2013-02-25 22:32:00,
2013-02-25 16:42:00,47.0,24.0,-100.00,WSW,240,6.0,10.0,41,-99.99,,,-99.99,,2013-02-25 22:42:00,
2013-02-25 16:52:00,47.0,24.0,-100.00,WSW,240,6.0,10.0,41,-99.99,,,-99.99,,2013-02-25 22:52:00,
2013-02-25 17:01:00,47.0,24.0,-100.00,WSW,240,6.0,10.0,41,-99.99,,,-99.99,,2013-02-25 23:01:00,
2013-02-25 17:32:00,46.0,24.0,-100.00,SSW,205,4.0,7.0,42,-99.99,,,-99.99,,2013-02-25 23:32:00,
2013-02-25 17:42:00,46.0,24.0,-100.00,SSW,205,4.0,7.0,42,-99.99,,,-99.99,,2013-02-25 23:42:00,
2013-02-25 17:52:00,46.0,24.0,-100.00,SSW,205,4.0,7.0,42,-99.99,,,-99.99,,2013-02-25 23:52:00,
2013-02-25 18:01:00,46.0,24.0,-100.00,SSW,205,4.0,7.0,42,-99.99,,,-99.99,,2013-02-26 00:01:00,
2013-02-25 18:02:00,44.0,24.0,-100.00,South,175,4.0,6.0,45,-99.99,,,-99.99,,2013-02-26 00:02:00,
2013-02-25 18:32:00,44.0,24.0,-100.00,South,175,4.0,6.0,45,-99.99,,,-99.99,,2013-02-26 00:32:00,
2013-02-25 18:42:00,44.0,24.0,-100.00,South,175,4.0,6.0,45,-99.99,,,-99.99,,2013-02-26 00:42:00,
2013-02-25 18:52:00,44.0,24.0,-100.00,South,175,4.0,6.0,45,-99.99,,,-99.99,,2013-02-26 00:52:00,
2013-02-25 19:32:00,39.0,22.0,-100.00,SE,135,2.0,2.0,49,-99.99,,,-99.99,,2013-02-26 01:32:00,
2013-02-25 19:42:00,39.0,22.0,-100.00,SE,135,2.0,2.0,49,-99.99,,,-99.99,,2013-02-26 01:42:00,
2013-02-25 19:52:00,39.0,22.0,-100.00,SE,135,2.0,2.0,49,-99.99,,,-99.99,,2013-02-26 01:52:00,
2013-02-25 20:01:00,39.0,22.0,-100.00,SE,135,2.0,2.0,49,-99.99,,,-99.99,,2013-02-26 02:01:00,
2013-02-25 20:02:00,37.0,21.0,-100.00,SE,135,7.0,9.0,52,-99.99,,,-99.99,,2013-02-26 02:02:00,
2013-02-25 20:32:00,37.0,21.0,-100.00,SE,135,7.0,9.0,52,-99.99,,,-99.99,,2013-02-26 02:32:00,
2013-02-25 20:42:00,37.0,21.0,-100.00,SE,135,7.0,9.0,52,-99.99,,,-99.99,,2013-02-26 02:42:00,
2013-02-25 20:52:00,37.0,21.0,-100.00,SE,135,7.0,9.0,52,-99.99,,,-99.99,,2013-02-26 02:52:00,
2013-02-25 22:32:00,35.0,-10.0,-100.00,SE,140,5.0,9.0,14,-99.99,,,-99.99,,2013-02-26 04:32:00,
2013-02-25 23:02:00,34.0,24.0,-100.00,South,185,4.0,7.0,65,-99.99,,,-99.99,,2013-02-26 05:02:00,
2013-02-25 23:32:00,34.0,24.0,-100.00,South,185,4.0,7.0,65,-99.99,,,-99.99,,2013-02-26 05:32:00,
2013-02-25 23:43:00,34.0,24.0,-100.00,South,185,4.0,7.0,65,-99.99,,,-99.99,,2013-02-26 05:43:00,
2013-02-25 23:52:00,34.0,24.0,-100.00,South,185,4.0,7.0,65,-99.99,,,-99.99,,2013-02-26 05:52:00,